Time;durP1;ratioP1;P1;durP2;ratioP2;P2;SDS_P1;SDS_P2;PMS_P1;PMS_P2;Temp;Humidity;BMP_temperature;BMP_pressure;BME280_temperature;BME280_humidity;BME280_pressure;Samples;Min_cycle;Max_cycle;Signal;HPM_P1;HPM_P2
2020/12/17 00:01:55;;;;;;;19.02;11.48;;;9.50;99.90;;;;;;5015075;28;20065;-68
2020/12/17 00:04:21;;;;;;;20.70;10.80;;;9.50;99.90;;;;;;5014715;28;20453;-69
2020/12/17 00:06:47;;;;;;;20.45;10.57;;;9.50;99.90;;;;;;5014784;28;20113;-69
2020/12/17 00:09:13;;;;;;;17.55;10.38;;;9.40;99.90;;;;;;5016219;28;20036;-69
2020/12/17 00:11:38;;;;;;;19.83;11.13;;;9.40;99.90;;;;;;5013919;28;20030;-69
2020/12/17 00:14:04;;;;;;;22.02;11.77;;;9.50;99.90;;;;;;5013944;28;20061;-69
2020/12/17 00:16:30;;;;;;;19.52;11.25;;;9.40;99.90;;;;;;5014154;28;20375;-69
2020/12/17 00:18:56;;;;;;;17.95;10.88;;;9.40;99.90;;;;;;5014253;28;20108;-70
2020/12/17 00:21:22;;;;;;;22.35;11.93;;;9.40;99.90;;;;;;5015492;28;20033;-68
2020/12/17 00:23:48;;;;;;;22.05;11.10;;;9.50;99.90;;;;;;5014260;28;20049;-70
2020/12/17 00:26:14;;;;;;;19.80;10.80;;;9.40;99.90;;;;;;5013731;28;20038;-68
2020/12/17 00:28:40;;;;;;;19.08;10.75;;;9.30;99.90;;;;;;5014061;28;20141;-69
2020/12/17 00:31:05;;;;;;;17.55;10.30;;;9.30;99.90;;;;;;5012740;28;20038;-70
2020/12/17 00:33:31;;;;;;;20.13;11.32;;;9.20;99.90;;;;;;5014367;28;20502;-68
2020/12/17 00:35:57;;;;;;;19.80;10.48;;;9.20;99.90;;;;;;5015839;28;20025;-69
2020/12/17 00:38:22;;;;;;;21.55;12.20;;;9.30;99.90;;;;;;5013947;28;20045;-69
2020/12/17 00:40:48;;;;;;;19.58;11.73;;;9.30;99.90;;;;;;5013535;28;20494;-69
2020/12/17 00:43:14;;;;;;;21.27;11.70;;;9.30;99.90;;;;;;5013582;28;20037;-70
2020/12/17 00:45:39;;;;;;;19.90;11.07;;;9.40;99.90;;;;;;5013249;28;20084;-69
2020/12/17 00:48:05;;;;;;;21.23;12.10;;;9.20;99.90;;;;;;5015183;28;20041;-68
2020/12/17 00:50:31;;;;;;;19.30;11.80;;;9.20;99.90;;;;;;5013481;28;20522;-68
2020/12/17 00:52:56;;;;;;;25.25;11.23;;;9.20;99.90;;;;;;5012693;28;20030;-69
2020/12/17 00:55:22;;;;;;;20.83;11.25;;;9.30;99.90;;;;;;5013255;28;20046;-70
2020/12/17 00:57:47;;;;;;;19.67;11.10;;;9.30;99.90;;;;;;5012881;28;20034;-70
2020/12/17 01:00:13;;;;;;;22.88;12.43;;;9.30;99.90;;;;;;5013990;28;20352;-69
2020/12/17 01:02:39;;;;;;;20.77;11.57;;;9.30;99.90;;;;;;5013339;28;20259;-70
2020/12/17 01:05:06;;;;;;;23.50;11.73;;;9.40;99.90;;;;;;5013587;28;20367;-69
2020/12/17 01:07:32;;;;;;;23.58;12.35;;;9.40;99.90;;;;;;5013345;28;20045;-69
2020/12/17 01:09:57;;;;;;;24.27;12.73;;;9.40;99.90;;;;;;5013143;28;20337;-70
2020/12/17 01:12:23;;;;;;;21.17;12.15;;;9.50;99.90;;;;;;5014820;28;20022;-70
2020/12/17 01:14:49;;;;;;;24.80;13.27;;;9.50;99.90;;;;;;5012262;28;20353;-70
2020/12/17 01:17:15;;;;;;;23.23;12.13;;;9.50;99.90;;;;;;5013113;28;20038;-69
2020/12/17 01:19:41;;;;;;;20.15;11.65;;;9.50;99.90;;;;;;5013347;28;20121;-69
2020/12/17 01:22:07;;;;;;;21.45;11.73;;;9.50;99.90;;;;;;5013513;28;20041;-70
2020/12/17 01:24:32;;;;;;;21.55;11.40;;;9.50;99.90;;;;;;5012896;28;20025;-71
2020/12/17 01:26:58;;;;;;;24.60;12.85;;;9.40;99.90;;;;;;5014906;28;20072;-70
2020/12/17 01:29:25;;;;;;;23.30;12.50;;;9.40;99.90;;;;;;5012919;28;20034;-69
2020/12/17 01:31:58;;;;;;;24.90;12.25;;;9.30;99.90;;;;;;5012833;28;20415;-70
2020/12/17 01:34:24;;;;;;;24.00;12.48;;;9.30;99.90;;;;;;5012942;28;20029;-70
2020/12/17 01:36:54;;;;;;;21.90;11.73;;;9.40;99.90;;;;;;5012569;28;20098;-69
2020/12/17 01:39:21;;;;;;;24.75;13.43;;;9.40;99.90;;;;;;5013995;28;20490;-68
2020/12/17 01:41:47;;;;;;;26.98;12.15;;;9.40;99.90;;;;;;5011805;28;20033;-68
2020/12/17 01:44:12;;;;;;;25.50;12.90;;;9.40;99.90;;;;;;5012765;28;20479;-69
2020/12/17 01:46:38;;;;;;;22.88;12.63;;;9.40;99.90;;;;;;5012665;28;20458;-68
2020/12/17 01:49:04;;;;;;;23.73;12.73;;;9.40;99.90;;;;;;5012641;28;20022;-69
2020/12/17 01:51:30;;;;;;;26.88;12.20;;;9.40;99.90;;;;;;5012607;28;20026;-68
2020/12/17 01:53:56;;;;;;;26.02;13.25;;;9.40;99.90;;;;;;5014121;28;20050;-69
2020/12/17 01:56:24;;;;;;;24.65;12.95;;;9.40;99.90;;;;;;5012594;28;20030;-69
2020/12/17 01:58:56;;;;;;;;;;;9.40;99.90;;;;;;5013308;28;20375;-70
2020/12/17 02:01:24;;;;;;;27.67;13.52;;;9.50;99.90;;;;;;5011043;28;19913;-68
2020/12/17 02:03:49;;;;;;;25.30;13.60;;;9.70;99.90;;;;;;5012205;28;20054;-69
2020/12/17 02:06:16;;;;;;;26.27;13.32;;;9.50;99.90;;;;;;5012789;28;20058;-69
2020/12/17 02:08:42;;;;;;;26.27;13.65;;;9.60;99.90;;;;;;5011552;28;20085;-69
2020/12/17 02:11:09;;;;;;;24.25;12.93;;;9.60;99.90;;;;;;5012217;28;20069;-69
2020/12/17 02:13:36;;;;;;;26.80;13.68;;;9.60;99.90;;;;;;5012311;28;20038;-69
2020/12/17 02:16:04;;;;;;;29.45;14.90;;;9.70;99.90;;;;;;5011601;28;20038;-69
2020/12/17 02:18:30;;;;;;;30.65;14.68;;;9.70;99.90;;;;;;5012090;28;20532;-69
2020/12/17 02:20:57;;;;;;;27.42;14.07;;;9.80;99.90;;;;;;5013789;28;20109;-69
2020/12/17 02:23:23;;;;;;;28.65;13.57;;;9.70;99.90;;;;;;5012209;28;20085;-69
2020/12/17 02:25:50;;;;;;;28.98;14.98;;;9.80;99.90;;;;;;5012213;28;20038;-70
2020/12/17 02:28:16;;;;;;;27.67;14.45;;;9.80;99.90;;;;;;5012289;28;20033;-69
2020/12/17 02:30:42;;;;;;;28.02;14.50;;;9.80;99.90;;;;;;5012016;28;20037;-70
2020/12/17 02:33:10;;;;;;;29.70;14.63;;;9.90;99.90;;;;;;5013396;28;20026;-69
2020/12/17 02:35:36;;;;;;;32.60;15.93;;;9.80;99.90;;;;;;5012009;28;20034;-69
2020/12/17 02:38:01;;;;;;;31.10;15.32;;;9.80;99.90;;;;;;5012008;28;20260;-70
2020/12/17 02:40:27;;;;;;;27.95;14.70;;;9.90;99.90;;;;;;5012154;28;20030;-69
2020/12/17 02:42:53;;;;;;;28.23;15.30;;;9.90;99.90;;;;;;5012227;28;20083;-69
2020/12/17 02:45:18;;;;;;;29.67;14.75;;;9.90;99.90;;;;;;5013501;28;20092;-69
2020/12/17 02:47:44;;;;;;;26.42;13.85;;;9.90;99.90;;;;;;5011601;28;20049;-69
2020/12/17 02:50:12;;;;;;;29.40;14.45;;;9.90;99.90;;;;;;5013853;28;20037;-69
2020/12/17 02:52:38;;;;;;;26.52;13.90;;;9.90;99.90;;;;;;5016001;28;20042;-69
2020/12/17 02:55:04;;;;;;;28.35;15.05;;;9.90;99.90;;;;;;5015681;28;20038;-69
2020/12/17 02:57:29;;;;;;;29.02;14.70;;;9.90;99.90;;;;;;5015780;28;20025;-70
2020/12/17 02:59:55;;;;;;;29.45;15.32;;;9.90;99.90;;;;;;5017580;28;20022;-70
2020/12/17 03:02:20;;;;;;;29.88;14.18;;;9.90;99.90;;;;;;5014552;28;20030;-69
2020/12/17 03:04:46;;;;;;;30.85;14.25;;;10.00;99.60;;;;;;5015600;28;20127;-69
2020/12/17 03:07:11;;;;;;;24.55;13.15;;;10.00;99.60;;;;;;5015606;28;20124;-69
2020/12/17 03:09:37;;;;;;;31.67;14.15;;;9.90;99.90;;;;;;5015412;28;20034;-69
2020/12/17 03:12:03;;;;;;;28.67;14.88;;;9.90;99.90;;;;;;5016940;28;20022;-69
2020/12/17 03:14:28;;;;;;;27.40;14.15;;;9.90;99.90;;;;;;5015779;28;20034;-70
2020/12/17 03:16:54;;;;;;;27.48;14.43;;;10.00;99.50;;;;;;5015547;28;20026;-70
2020/12/17 03:19:19;;;;;;;26.92;14.00;;;9.90;99.90;;;;;;5015448;28;20104;-69
2020/12/17 03:21:49;;;;;;;25.65;13.60;;;9.90;99.90;;;;;;5015116;28;20030;-69
2020/12/17 03:24:15;;;;;;;30.90;14.25;;;9.90;99.90;;;;;;5016862;28;20018;-69
2020/12/17 03:26:40;;;;;;;29.63;13.82;;;10.00;99.40;;;;;;5015024;28;20041;-69
2020/12/17 03:29:06;;;;;;;24.75;13.23;;;10.00;99.40;;;;;;5015386;28;20034;-70
2020/12/17 03:31:31;;;;;;;27.88;14.52;;;10.00;99.60;;;;;;5015126;28;20056;-69
2020/12/17 03:33:57;;;;;;;28.88;13.82;;;10.00;99.30;;;;;;5015180;28;20045;-69
2020/12/17 03:36:23;;;;;;;24.95;13.68;;;10.00;99.40;;;;;;5016495;28;20029;-69
2020/12/17 03:38:48;;;;;;;27.63;15.52;;;10.00;99.40;;;;;;5015060;28;20038;-68
2020/12/17 03:41:14;;;;;;;25.50;14.15;;;10.00;99.40;;;;;;5015023;28;20056;-68
2020/12/17 03:43:40;;;;;;;26.50;14.35;;;10.00;99.40;;;;;;5015153;28;20045;-68
2020/12/17 03:46:05;;;;;;;25.83;13.93;;;10.00;99.40;;;;;;5014213;28;20033;-70
2020/12/17 03:48:31;;;;;;;28.10;14.80;;;9.90;99.80;;;;;;5015123;28;20117;-69
2020/12/17 03:50:57;;;;;;;26.45;14.00;;;10.00;99.40;;;;;;5016246;28;20037;-68
2020/12/17 03:53:23;;;;;;;26.80;14.70;;;10.00;99.30;;;;;;5014487;28;20034;-69
2020/12/17 03:55:48;;;;;;;28.77;13.70;;;9.90;99.80;;;;;;5014434;28;20038;-69
2020/12/17 03:58:14;;;;;;;26.95;13.80;;;10.00;99.30;;;;;;5014563;28;20049;-69
2020/12/17 04:00:40;;;;;;;27.70;14.40;;;10.00;99.30;;;;;;5013776;28;20104;-68
2020/12/17 04:03:06;;;;;;;23.33;13.13;;;10.00;99.20;;;;;;5016079;28;20022;-70
2020/12/17 04:05:31;;;;;;;27.15;13.63;;;10.00;99.20;;;;;;5014524;28;20037;-70
2020/12/17 04:07:57;;;;;;;25.83;14.38;;;10.00;99.20;;;;;;5014545;28;20034;-69
2020/12/17 04:10:23;;;;;;;24.92;13.70;;;10.00;99.10;;;;;;5011495;28;20066;-69
2020/12/17 04:12:49;;;;;;;26.92;14.27;;;10.00;99.20;;;;;;5014438;28;20165;-69
2020/12/17 04:15:14;;;;;;;26.52;13.20;;;9.90;99.70;;;;;;5015932;28;20033;-69
2020/12/17 04:17:40;;;;;;;27.75;14.05;;;10.00;99.20;;;;;;5014379;28;20049;-69
2020/12/17 04:20:05;;;;;;;22.70;12.07;;;10.00;99.20;;;;;;5013367;28;20440;-68
2020/12/17 04:22:32;;;;;;;26.45;13.35;;;10.00;99.10;;;;;;5014251;28;20034;-69
2020/12/17 04:24:58;;;;;;;24.92;13.07;;;10.00;99.10;;;;;;5014376;28;20045;-68
2020/12/17 04:27:23;;;;;;;26.15;13.15;;;10.00;99.10;;;;;;5015566;28;20083;-69
2020/12/17 04:29:49;;;;;;;27.98;13.68;;;9.90;99.50;;;;;;5014311;28;20046;-69
2020/12/17 04:32:14;;;;;;;24.10;13.00;;;10.00;99.10;;;;;;5013927;28;20037;-70
2020/12/17 04:34:40;;;;;;;23.58;12.50;;;9.90;99.50;;;;;;5013981;28;20058;-69
2020/12/17 04:37:06;;;;;;;22.63;12.15;;;10.00;99.10;;;;;;5013989;28;20039;-69
2020/12/17 04:39:32;;;;;;;21.73;12.32;;;10.00;99.00;;;;;;5014303;28;20088;-68
2020/12/17 04:41:58;;;;;;;24.33;13.55;;;10.00;99.00;;;;;;5015541;28;20025;-69
2020/12/17 04:44:26;;;;;;;24.75;13.05;;;9.90;99.50;;;;;;5013956;28;20034;-69
2020/12/17 04:47:00;;;;;;;25.30;12.60;;;9.90;99.50;;;;;;5013603;28;20076;-68
2020/12/17 04:49:38;;;;;;;23.25;12.55;;;9.90;99.50;;;;;;5013795;28;20049;-68
2020/12/17 04:52:03;;;;;;;23.60;13.05;;;9.90;99.50;;;;;;5013793;28;20030;-69
2020/12/17 04:54:30;;;;;;;23.35;12.27;;;9.90;99.50;;;;;;5012586;28;20456;-70
2020/12/17 04:57:06;;;;;;;24.83;12.50;;;9.90;99.50;;;;;;5015227;28;20095;-69
2020/12/17 04:59:48;;;;;;;23.75;12.38;;;9.90;99.50;;;;;;5013648;28;20116;-69
2020/12/17 05:02:16;;;;;;;25.02;11.90;;;9.90;99.40;;;;;;5013365;28;20034;-69
2020/12/17 05:04:45;;;;;;;21.95;11.90;;;9.90;99.40;;;;;;5013154;28;20037;-70
2020/12/17 05:07:16;;;;;;;22.50;12.20;;;9.90;99.50;;;;;;5013558;28;20029;-69
2020/12/17 05:09:42;;;;;;;23.70;12.23;;;9.90;99.40;;;;;;5013084;28;20034;-69
2020/12/17 05:12:09;;;;;;;22.02;11.65;;;9.90;99.40;;;;;;5014926;28;20026;-69
2020/12/17 05:14:35;;;;;;;22.77;12.02;;;9.90;99.40;;;;;;5013164;28;20034;-69
2020/12/17 05:17:01;;;;;;;21.95;11.95;;;9.90;99.30;;;;;;5013049;28;20038;-69
2020/12/17 05:19:27;;;;;;;22.88;11.63;;;9.90;99.40;;;;;;5013188;28;20338;-70
2020/12/17 05:21:55;;;;;;;25.55;12.63;;;9.90;99.30;;;;;;5013110;28;20041;-69
2020/12/17 05:24:22;;;;;;;22.05;11.63;;;9.90;99.30;;;;;;5014615;28;20411;-69
2020/12/17 05:26:55;;;;;;;21.73;11.27;;;10.00;98.80;;;;;;5013150;28;20113;-70
2020/12/17 05:29:21;;;;;;;21.60;10.98;;;10.00;98.70;;;;;;5012990;28;20076;-69
2020/12/17 05:31:47;;;;;;;21.00;11.90;;;10.00;98.70;;;;;;5012950;28;20038;-70
2020/12/17 05:34:14;;;;;;;25.33;12.55;;;10.00;98.70;;;;;;5012692;28;20486;-70
2020/12/17 05:36:40;;;;;;;24.50;11.65;;;10.00;98.70;;;;;;5012758;28;20113;-69
2020/12/17 05:39:11;;;;;;;20.58;11.02;;;10.00;98.90;;;;;;5014337;28;20034;-69
2020/12/17 05:41:37;;;;;;;20.90;10.70;;;10.00;98.60;;;;;;5012483;28;20037;-70
2020/12/17 05:44:26;;;;;;;19.58;11.80;;;10.00;98.60;;;;;;5012360;28;20452;-68
2020/12/17 05:46:52;;;;;;;20.75;10.65;;;10.10;98.60;;;;;;5012691;28;20052;-70
2020/12/17 05:49:30;;;;;;;20.05;10.25;;;10.00;98.60;;;;;;5011481;28;20069;-70
2020/12/17 05:52:17;;;;;;;21.10;11.80;;;10.00;98.70;;;;;;5012549;28;20038;-66
2020/12/17 05:54:58;;;;;;;22.33;11.63;;;10.00;98.70;;;;;;5011171;28;20068;-69
2020/12/17 05:57:23;;;;;;;18.15;10.38;;;10.00;98.60;;;;;;5014265;28;20029;-69
2020/12/17 06:00:05;;;;;;;22.60;11.32;;;10.00;98.60;;;;;;5012659;28;20037;-69
2020/12/17 06:02:32;;;;;;;19.15;11.43;;;10.10;98.60;;;;;;5012506;28;20129;-68
2020/12/17 06:05:16;;;;;;;22.70;11.40;;;10.00;98.60;;;;;;5012549;28;20033;-69
2020/12/17 06:07:51;;;;;;;24.35;10.60;;;10.00;98.60;;;;;;5011039;28;20034;-69
2020/12/17 06:10:22;;;;;;;25.33;11.02;;;10.00;98.60;;;;;;5012195;28;20041;-70
2020/12/17 06:12:51;;;;;;;19.40;10.70;;;10.00;98.60;;;;;;5012269;28;20029;-70
2020/12/17 06:15:22;;;;;;;22.60;10.95;;;10.00;98.60;;;;;;5013636;28;20022;-69
2020/12/17 06:17:50;;;;;;;19.02;10.85;;;10.00;98.60;;;;;;5012483;28;20100;-69
2020/12/17 06:20:17;;;;;;;27.77;10.43;;;10.00;98.60;;;;;;5012149;28;20123;-70
2020/12/17 06:22:50;;;;;;;18.65;10.95;;;10.00;98.60;;;;;;5012117;28;20041;-69
2020/12/17 06:25:17;;;;;;;18.60;10.20;;;10.10;98.60;;;;;;5011738;28;20095;-69
2020/12/17 06:27:46;;;;;;;19.77;10.60;;;10.00;98.60;;;;;;5012053;28;20022;-70
2020/12/17 06:30:15;;;;;;;20.52;10.95;;;10.10;98.60;;;;;;5012531;28;20034;-69
2020/12/17 06:32:41;;;;;;;18.73;10.75;;;10.10;98.60;;;;;;5012005;28;20038;-69
2020/12/17 06:35:30;;;;;;;18.50;10.43;;;10.00;98.60;;;;;;5011911;28;20129;-70
2020/12/17 06:37:56;;;;;;;19.73;10.60;;;10.10;98.60;;;;;;5011956;28;20030;-69
2020/12/17 06:40:29;;;;;;;19.70;9.73;;;10.10;98.60;;;;;;5011993;28;20037;-70
2020/12/17 06:42:54;;;;;;;20.17;11.07;;;10.00;98.50;;;;;;5011995;28;20049;-70
2020/12/17 06:45:27;;;;;;;21.05;10.88;;;10.00;98.50;;;;;;5013441;28;20030;-70
2020/12/17 06:47:53;;;;;;;18.20;10.15;;;10.10;98.50;;;;;;5011017;28;20101;-69
2020/12/17 06:50:23;;;;;;;17.58;10.27;;;10.10;98.50;;;;;;5011582;28;20037;-69
2020/12/17 06:53:12;;;;;;;26.15;11.77;;;10.10;98.50;;;;;;5011758;28;20026;-70
2020/12/17 06:55:58;;;;;;;21.35;11.35;;;10.10;98.50;;;;;;5011357;28;20487;-69
2020/12/17 06:58:25;;;;;;;17.88;10.88;;;10.10;98.50;;;;;;5010431;28;20124;-70
2020/12/17 07:00:52;;;;;;;22.08;11.07;;;10.10;98.50;;;;;;5011568;28;20416;-69
2020/12/17 07:03:44;;;;;;;18.77;9.55;;;10.10;98.40;;;;;;5013236;28;20108;-69
2020/12/17 07:06:17;;;;;;;18.90;11.13;;;10.10;98.40;;;;;;5012029;28;20073;-69
2020/12/17 07:08:56;;;;;;;18.75;10.55;;;10.20;98.40;;;;;;5011561;28;20368;-69
2020/12/17 07:11:43;;;;;;;20.27;11.13;;;10.20;98.40;;;;;;5011337;28;20420;-69
2020/12/17 07:14:26;;;;;;;19.15;10.00;;;10.10;98.30;;;;;;5011468;28;20191;-69
2020/12/17 07:16:55;;;;;;;22.23;11.35;;;10.10;98.30;;;;;;5011301;28;20104;-69
2020/12/17 07:19:23;;;;;;;19.83;10.63;;;10.10;98.40;;;;;;5011758;28;20422;-69
2020/12/17 07:21:51;;;;;;;20.23;11.60;;;10.10;98.40;;;;;;5010769;28;20034;-70
2020/12/17 07:24:21;;;;;;;;;;;10.10;98.40;;;;;;5012463;28;20475;-69
2020/12/17 07:26:48;;;;;;;19.83;10.77;;;10.10;98.60;;;;;;5011710;28;19952;-68
2020/12/17 07:29:13;;;;;;;21.48;10.95;;;10.10;98.40;;;;;;5010313;28;20494;-69
2020/12/17 07:31:39;;;;;;;18.92;10.45;;;10.10;98.30;;;;;;5011401;28;20121;-69
2020/12/17 07:34:15;;;;;;;23.27;10.68;;;10.10;98.40;;;;;;5011270;28;20044;-69
2020/12/17 07:36:48;;;;;;;17.40;10.30;;;10.10;98.30;;;;;;5013505;28;20034;-69
2020/12/17 07:39:15;;;;;;;19.77;9.80;;;10.10;98.30;;;;;;5016185;28;20033;-68
2020/12/17 07:41:40;;;;;;;18.88;10.60;;;10.10;98.30;;;;;;5015065;28;20030;-68
2020/12/17 07:44:06;;;;;;;21.35;11.50;;;10.20;98.30;;;;;;5014807;28;20038;-70
2020/12/17 07:46:41;;;;;;;22.67;10.52;;;10.10;98.30;;;;;;5013632;28;20114;-69
2020/12/17 07:49:21;;;;;;;17.48;9.57;;;10.20;98.40;;;;;;5014622;28;20456;-70
2020/12/17 07:51:47;;;;;;;19.83;10.85;;;10.20;98.40;;;;;;5014524;28;20072;-68
2020/12/17 07:54:13;;;;;;;21.75;10.77;;;10.20;98.40;;;;;;5015998;28;20046;-68
2020/12/17 07:56:39;;;;;;;20.58;10.48;;;10.10;98.30;;;;;;5014547;28;20176;-70
2020/12/17 07:59:06;;;;;;;19.98;9.98;;;10.10;98.40;;;;;;5014518;28;20100;-68
2020/12/17 08:01:32;;;;;;;22.88;11.00;;;10.20;98.40;;;;;;5014258;28;20418;-68
2020/12/17 08:03:58;;;;;;;22.15;11.50;;;10.20;98.40;;;;;;5014675;28;20058;-68
2020/12/17 08:06:26;;;;;;;24.05;13.10;;;10.10;98.40;;;;;;5015921;28;20064;-69
2020/12/17 08:08:54;;;;;;;22.70;11.43;;;10.20;98.50;;;;;;5014742;28;20042;-69
2020/12/17 08:11:20;;;;;;;21.25;11.40;;;10.20;98.40;;;;;;5014265;28;20038;-70
2020/12/17 08:13:46;;;;;;;22.98;12.95;;;10.20;98.30;;;;;;5014332;28;20052;-70
2020/12/17 08:16:12;;;;;;;17.38;10.38;;;10.20;98.30;;;;;;5014061;28;20026;-70
2020/12/17 08:18:38;;;;;;;21.60;11.63;;;10.20;98.30;;;;;;5013997;28;20495;-79
2020/12/17 08:21:09;;;;;;;22.67;11.00;;;10.30;98.30;;;;;;5014597;28;20092;-70
2020/12/17 08:23:40;;;;;;;20.20;11.07;;;10.30;98.30;;;;;;5014047;28;20038;-69
2020/12/17 08:26:09;;;;;;;17.30;10.02;;;10.20;98.30;;;;;;5014096;28;20048;-70
2020/12/17 08:28:37;;;;;;;16.80;9.98;;;10.30;98.30;;;;;;5013975;28;20468;-70
2020/12/17 08:31:24;;;;;;;19.65;10.98;;;10.30;98.30;;;;;;5013871;28;20037;-70
2020/12/17 08:33:56;;;;;;;23.42;10.85;;;10.30;98.30;;;;;;5013804;28;20096;-70
2020/12/17 08:36:26;;;;;;;21.30;10.90;;;10.30;98.30;;;;;;5014529;28;20092;-73
2020/12/17 08:38:56;;;;;;;23.83;10.27;;;10.30;98.30;;;;;;5014074;28;20037;-71
2020/12/17 08:41:29;;;;;;;22.60;10.07;;;10.20;98.30;;;;;;5013750;28;20038;-70
2020/12/17 08:44:00;;;;;;;19.67;11.77;;;10.30;98.30;;;;;;5013799;28;20494;-70
2020/12/17 08:46:27;;;;;;;21.05;10.73;;;10.30;98.30;;;;;;5013315;28;20084;-70
2020/12/17 08:48:54;;;;;;;20.80;11.25;;;10.30;98.30;;;;;;5013177;28;20444;-70
2020/12/17 08:51:21;;;;;;;19.60;10.35;;;10.30;98.30;;;;;;5014934;28;20049;-70
2020/12/17 08:53:47;;;;;;;17.40;9.48;;;10.30;98.30;;;;;;5013283;28;20115;-69
2020/12/17 08:56:15;;;;;;;18.80;10.00;;;10.30;98.30;;;;;;5013256;28;20398;-71
2020/12/17 08:58:49;;;;;;;19.73;10.15;;;10.40;98.30;;;;;;5013152;28;20037;-69
2020/12/17 09:01:17;;;;;;;18.30;10.23;;;10.30;98.20;;;;;;5013415;28;20030;-70
2020/12/17 09:03:43;;;;;;;;;;;10.40;98.30;;;;;;5013613;28;20091;-70
2020/12/17 09:06:09;;;;;;;22.02;10.38;;;10.40;98.20;;;;;;5014700;28;19901;-69
2020/12/17 09:08:35;;;;;;;18.45;10.05;;;10.40;98.20;;;;;;5012234;28;20045;-70
2020/12/17 09:11:00;;;;;;;19.00;10.00;;;10.40;98.20;;;;;;5012841;28;20041;-69
2020/12/17 09:13:26;;;;;;;19.20;10.73;;;10.40;98.20;;;;;;5013649;28;20029;-69
2020/12/17 09:16:02;;;;;;;19.92;10.68;;;10.40;98.20;;;;;;5012862;28;20034;-69
2020/12/17 09:18:30;;;;;;;23.60;10.32;;;10.40;98.10;;;;;;5011740;28;20056;-69
2020/12/17 09:21:10;;;;;;;19.63;10.63;;;10.40;98.10;;;;;;5014620;28;20341;-69
2020/12/17 09:23:37;;;;;;;19.73;10.80;;;10.40;98.10;;;;;;5012991;28;20475;-69
2020/12/17 09:26:13;;;;;;;15.68;10.07;;;10.40;98.00;;;;;;5011958;28;20124;-68
2020/12/17 09:28:51;;;;;;;19.80;10.68;;;10.40;98.00;;;;;;5013047;28;20033;-69
2020/12/17 09:31:35;;;;;;;18.80;10.77;;;10.40;98.00;;;;;;5012894;28;20053;-68
2020/12/17 09:34:22;;;;;;;18.35;10.70;;;10.40;98.00;;;;;;5012450;28;20033;-69
2020/12/17 09:36:57;;;;;;;18.40;9.75;;;10.40;98.00;;;;;;5012499;28;20092;-68
2020/12/17 09:39:24;;;;;;;17.75;10.13;;;10.40;98.00;;;;;;5014206;28;20169;-68
2020/12/17 09:41:55;;;;;;;19.67;10.70;;;10.40;98.00;;;;;;5013058;28;20057;-69
2020/12/17 09:44:32;;;;;;;21.10;10.68;;;10.50;98.00;;;;;;5012606;28;20084;-68
2020/12/17 09:46:59;;;;;;;17.33;10.43;;;10.40;98.00;;;;;;5012703;28;20030;-69
2020/12/17 09:49:26;;;;;;;22.27;11.05;;;10.40;97.90;;;;;;5012381;28;20367;-68
2020/12/17 09:52:00;;;;;;;20.67;10.60;;;10.50;97.90;;;;;;5012070;28;20121;-68
2020/12/17 09:54:25;;;;;;;20.83;10.98;;;10.40;98.00;;;;;;5008799;28;20042;-70
2020/12/17 09:57:01;;;;;;;19.65;10.90;;;10.50;98.10;;;;;;4993177;28;20040;-68
2020/12/17 09:59:27;;;;;;;23.10;10.75;;;10.50;98.10;;;;;;4992156;28;20382;-71
2020/12/17 10:02:01;;;;;;;19.95;11.10;;;10.50;98.00;;;;;;4991600;28;20178;-69
2020/12/17 10:04:27;;;;;;;20.23;10.50;;;10.50;98.10;;;;;;4992718;28;20042;-71
2020/12/17 10:06:53;;;;;;;21.60;10.48;;;10.60;98.10;;;;;;4992542;28;20177;-69
2020/12/17 10:09:19;;;;;;;14.52;9.02;;;10.60;98.10;;;;;;4994131;28;20437;-71
2020/12/17 10:11:50;;;;;;;17.95;10.27;;;10.60;98.10;;;;;;4992419;28;20047;-73
2020/12/17 10:14:16;;;;;;;19.95;11.05;;;10.60;98.10;;;;;;4992675;28;20030;-74
2020/12/17 10:16:42;;;;;;;19.40;10.25;;;10.60;98.10;;;;;;4992471;28;20039;-70
2020/12/17 10:19:08;;;;;;;18.50;9.77;;;10.60;98.10;;;;;;4992367;28;20113;-73
2020/12/17 10:21:34;;;;;;;18.05;9.95;;;10.60;98.20;;;;;;4992183;28;20358;-73
2020/12/17 10:24:00;;;;;;;17.13;10.07;;;10.70;98.40;;;;;;4994088;28;20033;-72
2020/12/17 10:26:25;;;;;;;17.63;10.20;;;10.60;98.60;;;;;;4992504;28;20030;-70
2020/12/17 10:28:51;;;;;;;22.15;11.70;;;10.60;98.70;;;;;;4991175;28;20043;-70
2020/12/17 10:31:17;;;;;;;21.40;10.80;;;10.60;98.90;;;;;;4992302;28;20042;-68
2020/12/17 10:33:43;;;;;;;22.58;11.65;;;10.60;99.10;;;;;;4992268;28;20057;-71
2020/12/17 10:36:08;;;;;;;21.13;10.85;;;10.60;99.20;;;;;;4993789;28;20065;-68
2020/12/17 10:38:34;;;;;;;19.13;10.45;;;10.70;99.40;;;;;;4992506;28;20125;-68
2020/12/17 10:41:00;;;;;;;18.25;10.27;;;10.70;99.50;;;;;;4992327;28;20054;-68
2020/12/17 10:43:25;;;;;;;20.92;10.55;;;10.70;99.70;;;;;;4991424;28;20030;-68
2020/12/17 10:45:51;;;;;;;24.50;11.40;;;10.80;99.70;;;;;;4991551;28;20031;-67
2020/12/17 10:48:17;;;;;;;17.63;11.25;;;10.80;99.80;;;;;;4993504;28;20345;-67
2020/12/17 10:50:42;;;;;;;17.88;10.30;;;10.80;99.80;;;;;;4991609;28;20120;-68
2020/12/17 10:53:08;;;;;;;21.25;11.15;;;10.80;99.90;;;;;;4991407;28;20042;-69
2020/12/17 10:55:33;;;;;;;23.65;11.52;;;10.80;99.90;;;;;;4992013;28;20136;-68
2020/12/17 10:57:59;;;;;;;17.90;10.52;;;10.80;99.90;;;;;;4992158;28;20030;-69
2020/12/17 11:00:25;;;;;;;22.45;11.80;;;10.80;99.90;;;;;;4992107;28;20026;-66
2020/12/17 11:02:50;;;;;;;21.23;12.23;;;10.80;99.90;;;;;;4993500;28;20041;-69
2020/12/17 11:05:16;;;;;;;23.13;10.57;;;10.90;99.90;;;;;;4992146;28;20054;-67
2020/12/17 11:07:42;;;;;;;18.52;11.30;;;10.90;99.90;;;;;;4991910;28;20043;-68
2020/12/17 11:10:07;;;;;;;20.85;11.85;;;10.90;99.90;;;;;;4993501;28;20368;-69
2020/12/17 11:12:33;;;;;;;22.25;11.63;;;11.00;99.90;;;;;;4994918;28;20018;-69
2020/12/17 11:14:59;;;;;;;21.63;11.02;;;10.90;99.90;;;;;;4997235;28;20445;-68
2020/12/17 11:17:24;;;;;;;19.50;11.48;;;11.00;99.90;;;;;;4995515;28;20031;-68
2020/12/17 11:19:50;;;;;;;22.33;10.93;;;11.00;99.90;;;;;;4995787;28;20058;-69
2020/12/17 11:22:17;;;;;;;19.90;10.88;;;11.00;99.90;;;;;;4995455;28;20026;-70
2020/12/17 11:24:43;;;;;;;20.67;11.45;;;11.00;99.90;;;;;;4995554;28;20081;-74
2020/12/17 11:27:08;;;;;;;19.92;10.75;;;11.10;99.90;;;;;;4996886;28;20026;-70
2020/12/17 11:29:34;;;;;;;18.70;10.98;;;11.00;99.90;;;;;;4995216;28;20039;-70
2020/12/17 11:31:59;;;;;;;21.38;11.38;;;11.00;99.90;;;;;;4995694;28;20045;-70
2020/12/17 11:34:25;;;;;;;22.25;11.00;;;11.10;99.90;;;;;;4995348;28;20290;-75
2020/12/17 11:36:51;;;;;;;22.33;11.63;;;11.10;99.90;;;;;;4995273;28;20030;-75
2020/12/17 11:39:16;;;;;;;22.48;11.68;;;11.20;99.90;;;;;;4995780;28;20034;-71
2020/12/17 11:41:47;;;;;;;21.13;11.25;;;11.10;99.90;;;;;;4995219;28;20069;-73
2020/12/17 11:44:13;;;;;;;19.73;10.93;;;11.20;99.90;;;;;;4995263;28;20113;-72
2020/12/17 11:46:39;;;;;;;22.80;11.75;;;11.10;99.90;;;;;;4995128;28;20509;-71
2020/12/17 11:49:04;;;;;;;17.75;10.02;;;11.20;99.90;;;;;;4995069;28;20033;-72
2020/12/17 11:51:30;;;;;;;21.85;10.80;;;11.20;99.90;;;;;;4994833;28;20561;-70
2020/12/17 11:53:56;;;;;;;18.45;9.75;;;11.20;99.90;;;;;;4996443;28;20070;-72
2020/12/17 11:56:21;;;;;;;16.13;9.85;;;11.30;99.90;;;;;;4994781;28;20066;-69
2020/12/17 11:58:47;;;;;;;17.63;10.05;;;11.30;99.90;;;;;;4995085;28;20030;-69
2020/12/17 12:01:13;;;;;;;17.35;9.90;;;11.40;99.90;;;;;;4993930;28;20031;-70
2020/12/17 12:03:40;;;;;;;17.08;9.32;;;11.40;99.90;;;;;;4995005;28;20456;-69
2020/12/17 12:06:05;;;;;;;17.20;10.32;;;11.40;99.80;;;;;;4996334;28;20018;-69
2020/12/17 12:08:31;;;;;;;18.25;9.43;;;11.50;99.90;;;;;;4994657;28;20069;-70
2020/12/17 12:10:57;;;;;;;17.02;10.55;;;11.50;99.90;;;;;;4994122;28;20435;-76
2020/12/17 12:13:23;;;;;;;17.55;9.88;;;11.50;99.80;;;;;;4994411;28;20061;-71
2020/12/17 12:15:49;;;;;;;14.73;8.98;;;11.60;99.70;;;;;;4994870;28;20456;-70
2020/12/17 12:18:14;;;;;;;16.83;9.15;;;11.70;99.70;;;;;;4996132;28;20425;-70
2020/12/17 12:20:41;;;;;;;18.10;9.18;;;11.70;99.60;;;;;;4992123;28;20034;-71
2020/12/17 12:23:06;;;;;;;14.32;8.57;;;11.80;99.50;;;;;;4993733;28;20042;-69
2020/12/17 12:25:35;;;;;;;11.05;7.07;;;11.80;99.50;;;;;;4994178;28;20069;-69
2020/12/17 12:28:01;;;;;;;17.17;8.18;;;11.80;99.40;;;;;;4994140;28;20034;-69
2020/12/17 12:30:27;;;;;;;17.95;9.25;;;11.70;99.50;;;;;;4994195;28;20026;-71
2020/12/17 12:32:52;;;;;;;21.42;8.05;;;11.70;99.60;;;;;;4995687;28;20049;-71
2020/12/17 12:35:18;;;;;;;14.63;7.35;;;11.70;99.60;;;;;;4994325;28;20122;-69
2020/12/17 12:37:44;;;;;;;13.48;6.82;;;11.70;99.50;;;;;;4994344;28;20370;-70